createdAt,value
2018-05-21T00:00:55.774Z,15.90
2018-05-21T00:03:23.219Z,15.90
2018-05-21T00:05:50.670Z,15.90
2018-05-21T00:08:18.127Z,15.80
2018-05-21T00:10:45.581Z,15.80
2018-05-21T00:13:13.796Z,15.60
2018-05-21T00:15:41.252Z,15.60
2018-05-21T00:18:08.686Z,15.70
2018-05-21T00:20:36.135Z,15.60
2018-05-21T00:23:03.574Z,15.60
2018-05-21T00:25:31.047Z,15.60
2018-05-21T00:27:59.309Z,15.50
2018-05-21T00:30:26.759Z,15.50
2018-05-21T00:32:54.974Z,15.40
2018-05-21T00:35:22.415Z,15.40
2018-05-21T00:37:49.869Z,15.40
2018-05-21T00:40:17.310Z,15.40
2018-05-21T00:42:44.756Z,15.30
2018-05-21T00:45:12.211Z,15.30
2018-05-21T00:47:39.673Z,15.30
2018-05-21T00:50:07.881Z,15.10
2018-05-21T00:52:35.329Z,15.10
2018-05-21T00:55:15.278Z,15.10
2018-05-21T00:57:42.718Z,15.10
2018-05-21T01:00:10.163Z,15.00
2018-05-21T01:02:37.624Z,15.00
2018-05-21T01:05:05.081Z,15.00
2018-05-21T01:07:33.287Z,14.80
2018-05-21T01:10:00.734Z,14.80
2018-05-21T01:12:28.182Z,14.80
2018-05-21T01:14:55.623Z,14.70
2018-05-21T01:17:23.081Z,14.80
2018-05-21T01:19:50.531Z,14.70
2018-05-21T01:22:17.994Z,14.70
2018-05-21T01:24:45.463Z,14.60
2018-05-21T01:27:12.918Z,14.60
2018-05-21T01:29:40.364Z,14.60
2018-05-21T01:32:07.821Z,14.60
2018-05-21T01:34:35.265Z,14.60
2018-05-21T01:37:02.717Z,14.50
2018-05-21T01:39:30.172Z,14.50
2018-05-21T01:41:57.616Z,14.50
2018-05-21T01:44:25.056Z,14.50
2018-05-21T01:46:52.513Z,14.40
2018-05-21T01:49:19.962Z,14.40
2018-05-21T01:51:47.398Z,14.40
2018-05-21T01:54:14.833Z,14.20
2018-05-21T01:56:42.288Z,14.20
2018-05-21T01:59:09.749Z,14.20
2018-05-21T02:01:37.955Z,14.20
2018-05-21T02:04:05.394Z,14.20
2018-05-21T02:06:32.849Z,14.20
2018-05-21T02:09:00.305Z,14.30
2018-05-21T02:11:27.759Z,14.40
2018-05-21T02:13:55.208Z,14.30
2018-05-21T02:16:22.656Z,14.20
2018-05-21T02:18:50.083Z,14.20
2018-05-21T02:21:17.523Z,14.00
2018-05-21T02:23:44.963Z,14.00
2018-05-21T02:26:12.423Z,14.00
2018-05-21T02:28:39.861Z,14.00
2018-05-21T02:31:07.316Z,14.00
2018-05-21T02:33:35.510Z,13.90
2018-05-21T02:36:02.969Z,13.90
2018-05-21T02:38:30.423Z,14.00
2018-05-21T02:40:57.878Z,13.90
2018-05-21T02:43:25.328Z,13.80
2018-05-21T02:45:52.758Z,13.90
2018-05-21T02:48:20.238Z,13.90
2018-05-21T02:50:48.462Z,13.90
2018-05-21T02:53:15.913Z,13.90
2018-05-21T02:55:43.353Z,13.80
2018-05-21T02:58:10.858Z,13.60
2018-05-21T03:00:38.290Z,13.50
2018-05-21T03:03:05.740Z,13.60
2018-05-21T03:05:33.178Z,13.50
2018-05-21T03:08:00.627Z,13.50
2018-05-21T03:10:28.082Z,13.40
2018-05-21T03:12:56.320Z,13.50
2018-05-21T03:15:23.767Z,13.50
2018-05-21T03:17:51.230Z,13.50
2018-05-21T03:20:18.657Z,13.50
2018-05-21T03:22:46.127Z,13.50
2018-05-21T03:25:13.570Z,13.40
2018-05-21T03:27:41.010Z,13.40
2018-05-21T03:30:08.456Z,13.30
2018-05-21T03:32:35.899Z,13.30
2018-05-21T03:35:03.345Z,13.20
2018-05-21T03:37:30.810Z,13.20
2018-05-21T03:39:58.257Z,13.20
2018-05-21T03:42:25.721Z,13.10
2018-05-21T03:44:53.910Z,13.10
2018-05-21T03:47:21.366Z,13.10
2018-05-21T03:49:48.821Z,13.10
2018-05-21T03:52:16.287Z,13.30
2018-05-21T03:54:43.722Z,13.20
2018-05-21T03:57:11.186Z,13.30
2018-05-21T03:59:51.382Z,13.40
2018-05-21T04:02:30.882Z,13.40
2018-05-21T04:04:59.162Z,13.40
2018-05-21T04:07:26.642Z,13.30
2018-05-21T04:09:54.077Z,13.40
2018-05-21T04:12:21.538Z,13.40
2018-05-21T04:14:49.745Z,13.60
2018-05-21T04:17:17.185Z,13.60
2018-05-21T04:19:44.625Z,13.60
2018-05-21T04:22:12.074Z,13.60
2018-05-21T04:24:39.525Z,13.50
2018-05-21T04:27:06.975Z,13.50
2018-05-21T04:29:34.450Z,13.40
2018-05-21T04:32:02.660Z,13.60
2018-05-21T04:34:30.118Z,13.60
2018-05-21T04:36:57.559Z,13.60
2018-05-21T04:39:25.782Z,13.80
2018-05-21T04:41:53.241Z,13.70
2018-05-21T04:44:20.699Z,13.70
2018-05-21T04:46:48.257Z,13.80
2018-05-21T04:49:15.727Z,13.90
2018-05-21T04:51:43.172Z,13.80
2018-05-21T04:54:11.380Z,13.90
2018-05-21T04:56:38.840Z,13.90
2018-05-21T04:59:06.299Z,13.90
2018-05-21T05:01:33.734Z,13.80
2018-05-21T05:04:01.186Z,13.90
2018-05-21T05:06:28.637Z,13.80
2018-05-21T05:08:56.110Z,14.00
2018-05-21T05:11:24.328Z,14.10
2018-05-21T05:13:51.779Z,14.10
2018-05-21T05:16:19.216Z,14.20
2018-05-21T05:18:46.662Z,14.30
2018-05-21T05:21:14.102Z,14.50
2018-05-21T05:23:41.557Z,14.70
2018-05-21T05:26:09.001Z,14.90
2018-05-21T05:28:36.478Z,15.10
2018-05-21T05:31:03.995Z,15.50
2018-05-21T05:33:31.386Z,15.80
2018-05-21T05:35:58.965Z,15.90
2018-05-21T05:38:26.310Z,16.10
2018-05-21T05:40:53.761Z,16.30
2018-05-21T05:43:21.216Z,16.70
2018-05-21T05:45:49.410Z,17.00
2018-05-21T05:48:16.882Z,17.00
2018-05-21T05:50:44.323Z,17.20
2018-05-21T05:53:11.782Z,17.10
2018-05-21T05:55:39.235Z,16.90
2018-05-21T05:58:07.474Z,17.80
2018-05-21T06:00:34.905Z,17.70
2018-05-21T06:03:02.362Z,17.70
2018-05-21T06:05:29.818Z,17.90
2018-05-21T06:07:57.286Z,18.30
2018-05-21T06:10:25.506Z,18.30
2018-05-21T06:12:52.950Z,18.20
2018-05-21T06:15:20.398Z,18.50
2018-05-21T06:17:47.859Z,18.70
2018-05-21T06:20:15.314Z,18.80
2018-05-21T06:22:43.522Z,19.30
2018-05-21T06:25:10.990Z,19.30
2018-05-21T06:27:38.426Z,19.60
2018-05-21T06:30:05.886Z,20.10
2018-05-21T06:32:33.326Z,20.10
2018-05-21T06:35:00.784Z,20.10
2018-05-21T06:37:28.230Z,20.40
2018-05-21T06:39:56.466Z,20.80
2018-05-21T06:42:23.922Z,20.70
2018-05-21T06:44:51.382Z,20.30
2018-05-21T06:47:19.591Z,21.10
2018-05-21T06:49:47.156Z,21.10
2018-05-21T06:52:14.603Z,21.10
2018-05-21T06:54:42.066Z,20.90
2018-05-21T06:57:10.267Z,21.00
2018-05-21T06:59:37.714Z,21.00
2018-05-21T07:02:05.156Z,21.10
2018-05-21T07:04:32.613Z,20.80
2018-05-21T07:07:00.058Z,21.00
2018-05-21T07:09:27.533Z,21.20
2018-05-21T07:11:55.769Z,21.80
2018-05-21T07:14:23.216Z,21.80
2018-05-21T07:16:50.675Z,22.00
2018-05-21T07:19:18.116Z,22.50
2018-05-21T07:21:45.555Z,22.30
2018-05-21T07:24:13.007Z,22.40
2018-05-21T07:26:41.015Z,22.40
2018-05-21T07:29:08.454Z,22.20
2018-05-21T07:31:35.946Z,22.30
2018-05-21T07:34:03.388Z,22.70
2018-05-21T07:36:30.826Z,22.70
2018-05-21T07:38:58.271Z,22.50
2018-05-21T07:41:25.743Z,22.20
2018-05-21T07:43:53.983Z,22.90
2018-05-21T07:46:21.417Z,22.90
2018-05-21T07:48:48.854Z,23.00
2018-05-21T07:51:16.312Z,22.70
2018-05-21T07:53:43.759Z,22.90
2018-05-21T07:56:11.971Z,23.40
2018-05-21T07:58:39.419Z,23.40
2018-05-21T08:01:06.858Z,23.50
2018-05-21T08:03:34.304Z,23.70
2018-05-21T08:06:01.793Z,24.00
2018-05-21T08:08:29.218Z,24.00
2018-05-21T08:10:56.704Z,24.40
2018-05-21T08:13:24.137Z,24.70
2018-05-21T08:15:51.589Z,24.40
2018-05-21T08:18:19.022Z,23.40
2018-05-21T08:20:46.471Z,23.80
2018-05-21T08:23:13.955Z,24.50
2018-05-21T08:25:41.393Z,24.30
2018-05-21T08:28:08.849Z,24.00
2018-05-21T08:30:37.059Z,24.50
2018-05-21T08:33:04.482Z,24.50
2018-05-21T08:35:32.707Z,24.60
2018-05-21T08:38:00.148Z,24.60
2018-05-21T08:40:27.596Z,24.30
2018-05-21T08:42:55.036Z,23.90
2018-05-21T08:45:22.472Z,24.40
2018-05-21T08:47:49.938Z,25.00
2018-05-21T08:50:17.386Z,25.30
2018-05-21T08:52:44.829Z,25.20
2018-05-21T08:55:12.358Z,25.70
2018-05-21T08:57:39.738Z,25.50
2018-05-21T09:00:07.189Z,25.20
2018-05-21T09:02:34.643Z,23.80
2018-05-21T09:05:02.101Z,23.70
2018-05-21T09:07:29.552Z,23.60
2018-05-21T09:09:57.017Z,23.70
2018-05-21T09:12:24.500Z,24.50
2018-05-21T09:14:51.886Z,25.30
2018-05-21T09:17:19.345Z,25.40
2018-05-21T09:19:46.803Z,25.30
2018-05-21T09:22:14.244Z,25.50
2018-05-21T09:24:41.700Z,25.20
2018-05-21T09:27:09.130Z,23.80
2018-05-21T09:29:36.577Z,24.50
2018-05-21T09:32:04.782Z,25.60
2018-05-21T09:34:32.223Z,25.60
2018-05-21T09:36:59.672Z,25.20
2018-05-21T09:39:27.228Z,23.90
2018-05-21T09:41:54.688Z,24.20
2018-05-21T09:44:22.139Z,24.70
2018-05-21T09:46:49.571Z,25.60
2018-05-21T09:49:17.045Z,26.20
2018-05-21T09:51:44.495Z,26.50
2018-05-21T09:54:11.930Z,27.10
2018-05-21T09:56:40.135Z,25.70
2018-05-21T09:59:07.592Z,25.70
2018-05-21T10:01:35.037Z,25.20
2018-05-21T10:04:02.498Z,25.70
2018-05-21T10:06:29.958Z,26.10
2018-05-21T10:08:58.178Z,27.30
2018-05-21T10:11:25.628Z,27.30
2018-05-21T10:13:53.069Z,26.60
2018-05-21T10:16:20.515Z,26.50
2018-05-21T10:18:47.956Z,26.30
2018-05-21T10:21:15.418Z,25.90
2018-05-21T10:23:42.841Z,25.70
2018-05-21T10:26:10.337Z,26.20
2018-05-21T10:28:37.723Z,25.40
2018-05-21T10:31:05.162Z,24.60
2018-05-21T10:33:32.615Z,24.40
2018-05-21T10:36:00.068Z,24.80
2018-05-21T10:38:27.535Z,25.90
2018-05-21T10:40:54.994Z,26.00
2018-05-21T10:43:22.438Z,25.20
2018-05-21T10:45:49.898Z,25.60
2018-05-21T10:48:17.349Z,25.50
2018-05-21T10:50:44.790Z,24.90
2018-05-21T10:53:12.216Z,24.30
2018-05-21T10:55:39.669Z,24.20
2018-05-21T10:58:07.159Z,23.60
2018-05-21T11:00:34.645Z,23.30
2018-05-21T11:03:02.096Z,22.70
2018-05-21T11:05:29.552Z,22.50
2018-05-21T11:07:57.013Z,22.60
2018-05-21T11:10:24.465Z,22.50
2018-05-21T11:12:51.909Z,22.40
2018-05-21T11:15:19.355Z,22.20
2018-05-21T11:17:46.846Z,22.10
2018-05-21T11:20:14.241Z,22.20
2018-05-21T11:22:41.730Z,22.00
2018-05-21T11:25:09.198Z,22.00
2018-05-21T11:27:36.610Z,22.10
2018-05-21T11:30:04.054Z,22.10
2018-05-21T11:32:31.497Z,22.10
2018-05-21T11:34:58.990Z,22.30
2018-05-21T11:37:26.467Z,22.30
2018-05-21T11:39:53.962Z,22.30
2018-05-21T11:42:21.396Z,22.40
2018-05-21T11:44:48.851Z,22.40
2018-05-21T11:47:17.064Z,22.60
2018-05-21T11:49:44.510Z,22.60
2018-05-21T11:52:11.957Z,22.60
2018-05-21T11:54:39.411Z,22.50
2018-05-21T11:57:06.850Z,22.60
2018-05-21T11:59:34.283Z,22.60
2018-05-21T12:02:01.827Z,22.70
2018-05-21T12:04:29.163Z,22.70
2018-05-21T12:06:56.599Z,22.70
2018-05-21T12:09:24.814Z,22.80
2018-05-21T12:11:52.270Z,22.80
2018-05-21T12:14:19.706Z,22.90
2018-05-21T12:16:47.138Z,22.90
2018-05-21T12:19:14.595Z,22.80
2018-05-21T12:21:42.131Z,22.80
2018-05-21T12:24:09.621Z,22.90
2018-05-21T12:26:37.102Z,23.00
2018-05-21T12:29:04.532Z,23.00
2018-05-21T12:31:31.965Z,22.80
2018-05-21T12:33:59.443Z,22.70
2018-05-21T12:36:26.877Z,22.80
2018-05-21T12:38:55.259Z,22.90
2018-05-21T12:41:22.715Z,23.00
2018-05-21T12:43:50.161Z,23.00
2018-05-21T12:46:17.621Z,23.00
2018-05-21T12:48:45.099Z,23.10
2018-05-21T12:51:12.556Z,23.10
2018-05-21T12:53:39.999Z,23.10
2018-05-21T12:56:07.999Z,23.20
2018-05-21T12:58:35.430Z,23.30
2018-05-21T13:01:02.882Z,23.30
2018-05-21T13:03:30.387Z,23.30
2018-05-21T13:05:57.822Z,23.30
2018-05-21T13:08:25.282Z,23.20
2018-05-21T13:10:52.737Z,23.20
2018-05-21T13:13:20.933Z,23.30
2018-05-21T13:15:49.162Z,23.30
2018-05-21T13:18:16.619Z,23.30
2018-05-21T13:20:44.063Z,23.40
2018-05-21T13:23:11.536Z,23.40
2018-05-21T13:25:38.976Z,23.40
2018-05-21T13:28:06.487Z,23.40
2018-05-21T13:30:33.911Z,23.20
2018-05-21T13:33:01.430Z,23.30
2018-05-21T13:35:28.989Z,23.40
2018-05-21T13:37:56.502Z,23.40
2018-05-21T13:40:23.934Z,23.50
2018-05-21T13:42:51.406Z,23.50
2018-05-21T13:45:18.939Z,23.60
2018-05-21T13:47:46.397Z,23.70
2018-05-21T13:50:13.925Z,23.70
2018-05-21T13:52:41.396Z,23.70
2018-05-21T13:55:08.870Z,23.80
2018-05-21T13:57:36.540Z,23.80
2018-05-21T14:00:04.814Z,23.90
2018-05-21T14:02:32.289Z,23.80
2018-05-21T14:04:59.738Z,23.90
2018-05-21T14:07:27.177Z,24.00
2018-05-21T14:09:54.622Z,23.90
2018-05-21T14:12:22.069Z,23.90
2018-05-21T14:14:49.523Z,23.80
2018-05-21T14:17:17.063Z,23.70
2018-05-21T14:19:44.493Z,23.80
2018-05-21T14:22:11.968Z,24.00
2018-05-21T14:24:39.403Z,24.10
2018-05-21T14:27:06.886Z,24.30
2018-05-21T14:29:34.470Z,24.20
2018-05-21T14:32:01.855Z,24.10
2018-05-21T14:34:29.309Z,24.10
2018-05-21T14:36:56.808Z,23.90
2018-05-21T14:39:24.264Z,23.80
2018-05-21T14:41:51.757Z,23.70
2018-05-21T14:44:19.212Z,23.70
2018-05-21T14:46:47.185Z,23.60
2018-05-21T14:49:14.638Z,23.70
2018-05-21T14:51:42.103Z,23.70
2018-05-21T14:54:09.552Z,23.70
2018-05-21T14:56:37.788Z,23.70
2018-05-21T14:59:05.223Z,23.60
2018-05-21T15:01:32.677Z,23.70
2018-05-21T15:04:00.131Z,23.80
2018-05-21T15:06:27.590Z,23.80
2018-05-21T15:08:55.790Z,23.80
2018-05-21T15:11:23.314Z,23.80
2018-05-21T15:13:50.769Z,23.60
2018-05-21T15:16:18.226Z,23.60
2018-05-21T15:18:45.660Z,23.70
2018-05-21T15:21:13.098Z,23.70
2018-05-21T15:23:40.551Z,23.80
2018-05-21T15:26:07.991Z,23.80
2018-05-21T15:28:35.440Z,23.70
2018-05-21T15:31:02.905Z,23.70
2018-05-21T15:33:30.395Z,23.80
2018-05-21T15:35:57.870Z,23.90
2018-05-21T15:38:26.064Z,23.70
2018-05-21T15:40:53.593Z,23.70
2018-05-21T15:43:21.156Z,23.70
2018-05-21T15:45:49.327Z,23.70
2018-05-21T15:48:17.549Z,23.70
2018-05-21T15:50:45.005Z,23.60
2018-05-21T15:53:12.462Z,23.60
2018-05-21T15:55:40.382Z,23.70
2018-05-21T15:58:07.818Z,23.70
2018-05-21T16:00:35.259Z,23.60
2018-05-21T16:03:02.737Z,23.70
2018-05-21T16:05:30.186Z,23.70
2018-05-21T16:07:57.660Z,23.60
2018-05-21T16:10:25.146Z,23.50
2018-05-21T16:12:52.616Z,23.50
2018-05-21T16:15:20.062Z,23.50
2018-05-21T16:17:47.613Z,23.40
2018-05-21T16:20:14.974Z,23.40
2018-05-21T16:22:43.274Z,23.20
2018-05-21T16:25:10.728Z,23.20
2018-05-21T16:27:38.198Z,23.10
2018-05-21T16:30:06.418Z,23.20
2018-05-21T16:32:33.860Z,23.20
2018-05-21T16:35:01.306Z,23.10
2018-05-21T16:37:28.771Z,23.10
2018-05-21T16:39:56.215Z,23.10
2018-05-21T16:42:23.669Z,23.10
2018-05-21T16:44:51.125Z,23.10
2018-05-21T16:47:19.363Z,23.00
2018-05-21T16:49:46.820Z,23.00
2018-05-21T16:52:14.253Z,23.00
2018-05-21T16:54:41.686Z,23.00
2018-05-21T16:57:09.121Z,23.00
2018-05-21T16:59:36.570Z,23.00
2018-05-21T17:02:04.030Z,22.90
2018-05-21T17:04:31.525Z,22.90
2018-05-21T17:06:59.058Z,22.90
2018-05-21T17:09:26.423Z,22.90
2018-05-21T17:11:53.862Z,23.00
2018-05-21T17:14:21.330Z,23.10
2018-05-21T17:16:48.780Z,23.00
2018-05-21T17:19:16.254Z,23.00
2018-05-21T17:21:43.701Z,22.80
2018-05-21T17:24:11.906Z,22.80
2018-05-21T17:26:39.397Z,22.80
2018-05-21T17:29:06.944Z,22.80
2018-05-21T17:31:35.202Z,22.80
2018-05-21T17:34:02.743Z,22.80
2018-05-21T17:36:30.187Z,22.80
2018-05-21T17:38:57.625Z,22.70
2018-05-21T17:41:25.079Z,22.70
2018-05-21T17:43:53.299Z,22.70
2018-05-21T17:46:20.779Z,22.70
2018-05-21T17:48:48.991Z,22.60
2018-05-21T17:51:16.429Z,22.60
2018-05-21T17:53:43.904Z,22.60
2018-05-21T17:56:11.338Z,22.40
2018-05-21T17:58:38.794Z,22.30
2018-05-21T18:01:06.242Z,22.20
2018-05-21T18:03:34.562Z,22.20
2018-05-21T18:06:01.991Z,22.20
2018-05-21T18:08:29.455Z,22.20
2018-05-21T18:10:56.894Z,22.10
2018-05-21T18:13:24.343Z,22.10
2018-05-21T18:15:51.796Z,22.10
2018-05-21T18:18:19.233Z,22.00
2018-05-21T18:20:46.685Z,22.00
2018-05-21T18:23:14.132Z,21.90
2018-05-21T18:25:41.557Z,21.90
2018-05-21T18:28:08.989Z,21.80
2018-05-21T18:30:36.447Z,21.90
2018-05-21T18:33:03.947Z,21.80
2018-05-21T18:35:31.379Z,21.80
2018-05-21T18:37:58.864Z,21.80
2018-05-21T18:40:26.302Z,21.70
2018-05-21T18:42:53.754Z,21.60
2018-05-21T18:45:21.215Z,21.60
2018-05-21T18:47:48.662Z,21.50
2018-05-21T18:50:16.124Z,21.50
2018-05-21T18:52:43.561Z,21.40
2018-05-21T18:55:11.009Z,21.40
2018-05-21T18:57:38.503Z,21.30
2018-05-21T19:00:05.966Z,21.30
2018-05-21T19:02:34.155Z,21.20
2018-05-21T19:05:01.588Z,21.10
2018-05-21T19:07:29.034Z,21.10
2018-05-21T19:09:56.492Z,21.00
2018-05-21T19:12:23.967Z,21.00
2018-05-21T19:14:52.311Z,20.90
2018-05-21T19:17:19.738Z,20.90
2018-05-21T19:19:47.199Z,20.80
2018-05-21T19:22:14.647Z,20.70
2018-05-21T19:24:42.077Z,20.60
2018-05-21T19:27:10.281Z,20.50
2018-05-21T19:29:37.740Z,20.50
2018-05-21T19:32:05.182Z,20.50
2018-05-21T19:34:32.622Z,20.40
2018-05-21T19:37:00.059Z,20.40
2018-05-21T19:39:27.515Z,20.40
2018-05-21T19:41:55.866Z,20.30
2018-05-21T19:44:23.322Z,20.20
2018-05-21T19:46:50.754Z,20.20
2018-05-21T19:49:18.216Z,20.10
2018-05-21T19:51:45.663Z,20.00
2018-05-21T19:54:13.129Z,20.00
2018-05-21T19:56:41.355Z,19.90
2018-05-21T19:59:08.813Z,19.80
2018-05-21T20:01:36.259Z,19.80
2018-05-21T20:04:03.730Z,19.80
2018-05-21T20:06:31.169Z,19.80
2018-05-21T20:08:59.381Z,19.80
2018-05-21T20:11:26.822Z,19.80
2018-05-21T20:13:54.275Z,19.80
2018-05-21T20:16:23.245Z,19.70
2018-05-21T20:18:50.688Z,19.70
2018-05-21T20:21:18.743Z,19.70
2018-05-21T20:23:46.196Z,19.60
2018-05-21T20:26:13.629Z,19.50
2018-05-21T20:28:41.061Z,19.50
2018-05-21T20:31:08.507Z,19.50
2018-05-21T20:33:35.961Z,19.30
2018-05-21T20:36:03.430Z,19.30
2018-05-21T20:38:30.864Z,19.40
2018-05-21T20:40:58.323Z,19.40
2018-05-21T20:43:25.889Z,19.30
2018-05-21T20:45:53.565Z,19.30
2018-05-21T20:48:21.015Z,19.10
2018-05-21T20:50:48.466Z,19.10
2018-05-21T20:53:15.922Z,19.00
2018-05-21T20:55:43.460Z,19.00
2018-05-21T20:58:11.591Z,18.80
2018-05-21T21:00:39.027Z,18.80
2018-05-21T21:03:06.457Z,18.80
2018-05-21T21:05:33.947Z,18.80
2018-05-21T21:08:01.421Z,18.70
2018-05-21T21:10:28.931Z,18.70
2018-05-21T21:12:57.096Z,18.50
2018-05-21T21:15:24.552Z,18.50
2018-05-21T21:17:51.990Z,18.40
2018-05-21T21:20:19.478Z,18.30
2018-05-21T21:22:46.923Z,18.30
2018-05-21T21:25:14.394Z,18.20
2018-05-21T21:27:41.842Z,18.10
2018-05-21T21:30:09.295Z,18.00
2018-05-21T21:32:36.754Z,17.90
2018-05-21T21:35:04.211Z,17.80
2018-05-21T21:37:32.425Z,17.70
2018-05-21T21:39:59.877Z,17.70
2018-05-21T21:42:27.345Z,17.70
2018-05-21T21:44:54.809Z,17.70
2018-05-21T21:47:22.293Z,17.70
2018-05-21T21:49:49.721Z,17.70
2018-05-21T21:52:17.165Z,17.70
2018-05-21T21:54:44.618Z,17.60
2018-05-21T21:57:12.058Z,17.60
2018-05-21T21:59:39.523Z,17.60
2018-05-21T22:02:06.970Z,17.70
2018-05-21T22:04:34.425Z,17.70
2018-05-21T22:07:01.886Z,17.70
2018-05-21T22:09:29.348Z,17.70
2018-05-21T22:11:56.819Z,17.70
2018-05-21T22:14:38.749Z,17.70
2018-05-21T22:17:06.980Z,17.70
2018-05-21T22:19:34.436Z,17.70
2018-05-21T22:22:01.902Z,17.70
2018-05-21T22:24:29.362Z,17.70
2018-05-21T22:26:56.827Z,17.70
2018-05-21T22:29:24.282Z,17.70
2018-05-21T22:31:51.723Z,17.70
2018-05-21T22:34:19.992Z,17.70
2018-05-21T22:36:47.448Z,17.70
2018-05-21T22:39:14.918Z,17.70
2018-05-21T22:41:43.122Z,17.70
2018-05-21T22:44:11.538Z,17.70
2018-05-21T22:46:39.008Z,17.60
2018-05-21T22:49:07.209Z,17.60
2018-05-21T22:51:34.665Z,17.60
2018-05-21T22:54:02.135Z,17.60
2018-05-21T22:56:29.573Z,17.60
2018-05-21T22:58:57.784Z,17.50
2018-05-21T23:01:25.221Z,17.50
2018-05-21T23:03:52.731Z,17.50
2018-05-21T23:06:20.122Z,17.40
2018-05-21T23:08:47.595Z,17.30
2018-05-21T23:11:15.050Z,17.20
2018-05-21T23:13:42.489Z,17.00
2018-05-21T23:16:10.714Z,16.80
2018-05-21T23:18:38.153Z,16.80
2018-05-21T23:21:05.594Z,16.70
2018-05-21T23:23:33.038Z,16.70
2018-05-21T23:26:00.494Z,16.70
2018-05-21T23:28:27.957Z,16.70
2018-05-21T23:30:55.411Z,16.80
2018-05-21T23:33:22.858Z,16.90
2018-05-21T23:35:50.314Z,16.90
2018-05-21T23:38:17.826Z,16.90
2018-05-21T23:40:46.062Z,16.90
2018-05-21T23:43:13.629Z,16.90
2018-05-21T23:45:41.075Z,17.00
2018-05-21T23:48:08.530Z,16.90
2018-05-21T23:50:36.740Z,17.00
2018-05-21T23:53:04.978Z,17.00
2018-05-21T23:55:32.430Z,17.00
2018-05-21T23:57:59.875Z,17.00
